deformed-offering

Nearby METAR Reports

 

KSJC - San Jose, California, USA
Distance from station: NE 9mi, 14km
Updated: Fri, 05-Mar-2021 11:53am PST
Overcast
Overcast
 Wind from varies
Wind: varies 6 mph , 9 km/h
Temperature: 63°F , 17°C
Dew Point: 39°F , 4°C
Humidity: 42%
Barometer: 30.16 inHg , 1021.3 hPa
Clouds: Overcast
Visibility: 10 miles , 16 km
Cloud details: Few Clouds 3000 ft
Mostly Cloudy 12000 ft
Overcast 17000 ft
2021/03/05 19:53 KSJC 051953Z VRB05KT 10SM FEW030 BKN120 OVC170 17/04 A3016 RMK AO2 SLP212 T01720044
KRHV - San Jose/Reid, California, USA
Distance from station: ENE 12mi, 19km
Updated: Fri, 05-Mar-2021 11:55am PST
Partly Cloudy
Partly Cloudy
 Wind from NNW
Wind: NNW 6 mph , 9 km/h
Temperature: 63°F , 17°C
Dew Point: 43°F , 6°C
Humidity: 49%
Barometer: 30.16 inHg , 1021.3 hPa
Clouds: Partly Cloudy
Visibility: 10 miles , 16 km
Cloud details: Partly Cloudy 12000 ft
2021/03/05 19:55 KRHV 051955Z 33005KT 10SM SCT120 17/06 A3016
 
KPAO - Palo Alto, California, USA
Distance from station: NNW 14mi, 23km
Updated: Fri, 05-Mar-2021 9:47am PST
NOT Current
Clear
Clear
 Wind from varies
Wind: varies 5 mph , 7 km/h
Temperature: 54°F , 12°C
Dew Point: 43°F , 6°C
Humidity: 67%
Barometer: 30.22 inHg , 1023.4 hPa
Clouds: Clear
Visibility: 10 miles , 16 km
2021/03/05 17:47 KPAO 051747Z VRB04KT 10SM SKC 12/06 A3022
KSQL - San Carlos Airpo, California, USA
Distance from station: NW 21mi, 34km
Updated: Fri, 05-Mar-2021 11:47am PST
Partly Cloudy
Partly Cloudy
 Wind from NNE
Wind: NNE 6 mph , 9 km/h
Temperature: 59°F , 15°C
Dew Point: 46°F , 8°C
Humidity: 63%
Barometer: 30.18 inHg , 1022 hPa
Clouds: Partly Cloudy
Visibility: 10 miles , 16 km
Cloud details: Partly Cloudy 20000 ft
2021/03/05 19:47 KSQL 051947Z 03005KT 10SM SCT200 15/08 A3018
 
KWVI - Watsonville, California, USA
Distance from station: SSE 27mi, 44km
Updated: Fri, 05-Mar-2021 11:53am PST
Clear
Clear
 Wind from SW
Wind: SW 9 mph , 15 km/h
Temperature: 61°F , 16°C
Dew Point: 45°F , 7°C
Humidity: 55%
Barometer: 30.18 inHg , 1022 hPa
Clouds: Clear
Visibility: 10 miles , 16 km
2021/03/05 19:53 KWVI 051953Z AUTO 23008KT 10SM CLR 16/07 A3018 RMK AO2 SLP221 T01610067
KHWD - Hayward, California, USA
Distance from station: N 28mi, 44km
Updated: Fri, 05-Mar-2021 11:54am PST
Clear
Clear
 Wind from WNW
Wind: WNW 6 mph , 9 km/h
Temperature: 63°F , 17°C
Dew Point: 43°F , 6°C
Humidity: 49%
Barometer: 30.17 inHg , 1021.7 hPa
Clouds: Clear
Visibility: 10 miles , 16 km
2021/03/05 19:54 KHWD 051954Z 30005KT 10SM CLR 17/06 A3017 RMK AO2 SLP225 T01670056
 
KSFO - San Francisco, California, USA
Distance from station: NW 30mi, 49km
Updated: Fri, 05-Mar-2021 11:56am PST
Few Clouds
Few Clouds
 Wind from E
Wind: E 6 mph , 9 km/h
Temperature: 59°F , 15°C
Dew Point: 46°F , 8°C
Humidity: 63%
Barometer: 30.17 inHg , 1021.7 hPa
Clouds: Few Clouds
Visibility: 10 miles , 16 km
Cloud details: Few Clouds 4000 ft
Few Clouds 20000 ft
2021/03/05 19:56 KSFO 051956Z 08005KT 10SM FEW040 FEW200 15/08 A3017 RMK AO2 SLP215 T01500078
KHAF - Half Moon Bay, California, USA
Distance from station: WNW 31mi, 50km
Updated: Fri, 05-Mar-2021 11:55am PST
Clear
Clear
 Wind from S
Wind: S 9 mph , 15 km/h
Temperature: 57°F , 14°C
Dew Point: 46°F , 8°C
Humidity: 67%
Barometer: 30.19 inHg , 1022.4 hPa
Clouds: Clear
Visibility: 7 miles , 11 km
2021/03/05 19:55 KHAF 051955Z AUTO 17008KT 7SM CLR 14/08 A3019 RMK AO2
 
KLVK - Livermore, California, USA
Distance from station: NNE 31mi, 51km
Updated: Fri, 05-Mar-2021 11:53am PST
Clear
Clear
 Wind from SSW
Wind: SSW 5 mph , 7 km/h
Temperature: 63°F , 17°C
Dew Point: 39°F , 4°C
Humidity: 42%
Barometer: 30.15 inHg , 1021 hPa
Clouds: Clear
Visibility: 10 miles , 16 km
2021/03/05 19:53 KLVK 051953Z 20004KT 10SM CLR 17/04 A3015 RMK AO2 SLP210 T01670044
KOAK - Oakland, California, USA
Distance from station: NNW 33mi, 53km
Updated: Fri, 05-Mar-2021 11:53am PST
Partly Cloudy
Partly Cloudy
 Wind from WSW
Wind: WSW 5 mph , 7 km/h
Temperature: 63°F , 17°C
Dew Point: 45°F , 7°C
Humidity: 52%
Barometer: 30.18 inHg , 1022 hPa
Clouds: Partly Cloudy
Visibility: 10 miles , 16 km
Cloud details: Few Clouds 2500 ft
Partly Cloudy 20000 ft
2021/03/05 19:53 KOAK 051953Z 24004KT 10SM FEW025 SCT200 17/07 A3018 RMK AO2 SLP218 T01720067
 
KCVH - Hollister Muni, California, USA
Distance from station: SE 42mi, 68km
Updated: Fri, 05-Mar-2021 11:55am PST
Haze, Clear
Haze, Clear
 Wind from varies
Wind: varies 6 mph , 9 km/h
Temperature: 63°F , 17°C
Dew Point: 43°F , 6°C
Humidity: 49%
Barometer: 30.17 inHg , 1021.7 hPa
Summary: Haze
Clouds: Clear
Visibility: 2 1/2 miles , 4 km
2021/03/05 19:55 KCVH 051955Z AUTO VRB05KT 2 1/2SM HZ CLR 17/06 A3017 RMK A01
KSNS - Salinas, California, USA
Distance from station: SSE 48mi, 77km
Updated: Fri, 05-Mar-2021 11:53am PST
Clear
Clear
 Wind from WNW
Wind: WNW 7 mph , 11 km/h
Temperature: 63°F , 17°C
Dew Point: 45°F , 7°C
Humidity: 52%
Barometer: 30.17 inHg , 1021.7 hPa
Clouds: Clear
Visibility: 10 miles , 16 km
2021/03/05 19:53 KSNS 051953Z 30006KT 10SM CLR 17/07 A3017 RMK AO2 SLP225 T01720067
 
KMRY - Monterey, California, USA
Distance from station: SSE 49mi, 78km
Updated: Fri, 05-Mar-2021 11:54am PST
Clear
Clear
 Wind from NNW
Wind: NNW 8 mph , 13 km/h
Temperature: 57°F , 14°C
Dew Point: 45°F , 7°C
Humidity: 63%
Barometer: 30.19 inHg , 1022.4 hPa
Clouds: Clear
Visibility: 10 miles , 16 km
2021/03/05 19:54 KMRY 051954Z 34007KT 10SM CLR 14/07 A3019 RMK AO2 SLP235 T01390067
KCCR - Concord, California, USA
Distance from station: N 50mi, 81km
Updated: Fri, 05-Mar-2021 11:53am PST
Clear
Clear
 Wind from NNW
Wind: NNW 8 mph , 13 km/h
Temperature: 64°F , 18°C
Dew Point: 43°F , 6°C
Humidity: 46%
Barometer: 30.16 inHg , 1021.3 hPa
Clouds: Clear
Visibility: 10 miles , 16 km
2021/03/05 19:53 KCCR 051953Z 34007KT 10SM CLR 18/06 A3016 RMK AO2 SLP198 T01830056
deformed-offering